Time;durP1;ratioP1;P1;durP2;ratioP2;P2;SDS_P1;SDS_P2;PMS_P1;PMS_P2;Temp;Humidity;BMP_temperature;BMP_pressure;BME280_temperature;BME280_humidity;BME280_pressure;Samples;Min_cycle;Max_cycle;Signal;HPM_P1;HPM_P2
2021/07/15 00:00:29;;;;;;;16.62;6.80;;;;;;;19.25;76.53;99751.84;2201335;80;30496;-65
2021/07/15 00:03:33;;;;;;;20.80;6.80;;;;;;;19.21;76.52;99741.74;2107817;83;27662;-65
2021/07/15 00:06:34;;;;;;;20.30;7.53;;;;;;;19.19;76.79;99730.20;2095117;84;28682;-68
2021/07/15 00:09:38;;;;;;;17.45;7.58;;;;;;;19.18;76.61;99729.84;2131399;83;31469;-67
2021/07/15 00:12:43;;;;;;;16.93;7.62;;;;;;;19.16;76.80;99714.67;2125781;83;34439;-67
2021/07/15 00:15:47;;;;;;;;;;;;;;;19.12;76.90;99719.03;2127189;83;30557;-67
2021/07/15 00:18:50;;;;;;;15.97;8.30;;;;;;;19.12;76.89;99721.75;2125529;83;27834;-69
2021/07/15 00:21:51;;;;;;;13.90;8.05;;;;;;;19.06;77.33;99727.78;2119518;83;29934;-73
2021/07/15 00:24:53;;;;;;;13.53;7.55;;;;;;;19.05;77.07;99727.91;2083274;85;31123;-70
2021/07/15 00:27:55;;;;;;;15.98;7.55;;;;;;;19.04;77.02;99718.05;2118277;83;34091;-69
2021/07/15 00:30:57;;;;;;;21.60;8.33;;;;;;;19.05;77.02;99712.98;2074853;84;30738;-70
2021/07/15 00:33:59;;;;;;;22.05;8.83;;;;;;;19.06;77.08;99709.27;2053312;86;27760;-67
2021/07/15 00:37:00;;;;;;;14.98;8.90;;;;;;;19.06;77.00;99707.42;2024909;86;28706;-67
2021/07/15 00:40:06;;;;;;;22.27;9.70;;;;;;;19.07;77.07;99704.19;2041557;87;31019;-66
2021/07/15 00:43:08;;;;;;;21.25;10.82;;;;;;;19.05;77.17;99697.56;2068388;83;33842;-70
2021/07/15 00:46:10;;;;;;;20.35;9.58;;;;;;;19.05;77.08;99696.69;2123594;83;29471;-72
2021/07/15 00:49:13;;;;;;;26.40;9.30;;;;;;;19.04;77.25;99689.55;2103684;84;27733;-77
2021/07/15 00:52:15;;;;;;;14.73;8.73;;;;;;;19.05;77.23;99696.69;2143257;83;28657;-76
2021/07/15 00:55:25;;;;;;;23.32;9.18;;;;;;;19.01;77.07;99709.70;2128428;82;31033;-67
2021/07/15 00:58:27;;;;;;;18.37;9.03;;;;;;;19.03;77.13;99726.71;2133828;83;33052;-65
2021/07/15 01:01:30;;;;;;;16.37;8.85;;;;;;;19.02;77.16;99735.86;2105270;83;30304;-68
2021/07/15 01:04:32;;;;;;;28.50;8.55;;;;;;;19.04;77.20;99727.55;2167145;81;27691;-64
2021/07/15 01:07:34;;;;;;;22.22;8.43;;;;;;;19.04;77.07;99730.27;2179906;81;28652;-65
2021/07/15 01:10:40;;;;;;;20.43;9.10;;;;;;;19.03;77.01;99724.52;2191841;81;31097;-69
2021/07/15 01:14:02;;;;;;;21.20;9.78;;;;;;;19.03;77.17;99714.50;2170577;80;32953;-64
2021/07/15 01:17:12;;;;;;;19.42;9.43;;;;;;;18.98;76.93;99719.02;2164594;81;29980;-66
2021/07/15 01:20:43;;;;;;;25.77;10.58;;;;;;;19.00;77.11;99712.58;2155517;81;27704;-72
2021/07/15 01:24:40;;;;;;;21.55;9.93;;;;;;;19.01;77.08;99715.66;2049347;85;29356;-68
2021/07/15 01:28:02;;;;;;;24.92;8.63;;;;;;;18.96;77.03;99724.20;2191669;81;31031;-66
2021/07/15 01:31:05;;;;;;;25.90;8.85;;;;;;;18.97;77.08;99726.80;2195511;81;32998;-66
2021/07/15 01:34:10;;;;;;;17.98;10.00;;;;;;;18.99;77.04;99730.71;2182873;81;29306;-67
2021/07/15 01:37:12;;;;;;;16.97;7.85;;;;;;;18.98;76.96;99730.35;2191197;81;27819;-72
2021/07/15 01:40:19;;;;;;;16.80;8.80;;;;;;;18.94;76.90;99722.14;2195071;81;28641;-71
2021/07/15 01:43:28;;;;;;;17.27;8.58;;;;;;;18.93;76.99;99726.69;2125422;82;31862;-68
2021/07/15 01:46:31;;;;;;;13.85;8.50;;;;;;;18.96;77.10;99726.44;2103902;82;33251;-66
2021/07/15 01:49:33;;;;;;;22.15;9.15;;;;;;;18.93;77.03;99729.41;2051734;85;28704;-69
2021/07/15 01:52:36;;;;;;;15.93;8.85;;;;;;;18.95;77.13;99721.14;2155949;81;27633;-66
2021/07/15 01:55:39;;;;;;;17.52;8.90;;;;;;;18.98;77.03;99712.70;2166989;81;29487;-66
2021/07/15 01:58:41;;;;;;;19.07;9.35;;;;;;;18.99;77.00;99723.92;2171619;81;31867;-67
2021/07/15 02:01:45;;;;;;;23.65;9.38;;;;;;;18.97;76.90;99723.20;2155569;81;32981;-71
2021/07/15 02:04:47;;;;;;;22.67;10.50;;;;;;;18.91;76.98;99729.20;2155961;81;29332;-70
2021/07/15 02:07:49;;;;;;;27.07;10.85;;;;;;;18.86;77.09;99730.12;2156689;81;27698;-68
2021/07/15 02:10:52;;;;;;;15.98;9.85;;;;;;;18.80;77.21;99722.06;2157834;81;28733;-72
2021/07/15 02:13:54;;;;;;;16.67;8.65;;;;;;;18.79;77.31;99729.33;2155393;82;31872;-74
2021/07/15 02:17:00;;;;;;;21.82;10.32;;;;;;;18.85;77.47;99729.28;2174430;81;33423;-74
2021/07/15 02:20:04;;;;;;;14.93;9.43;;;;;;;18.92;77.53;99730.41;2194420;81;29565;-64
2021/07/15 02:23:07;;;;;;;17.45;9.75;;;;;;;18.94;77.52;99726.20;2155725;82;27692;-63
2021/07/15 02:26:09;;;;;;;19.12;10.30;;;;;;;18.96;77.66;99737.78;2166472;81;28696;-63
2021/07/15 02:29:12;;;;;;;20.02;10.10;;;;;;;18.98;77.54;99748.00;2181782;81;32014;-64
2021/07/15 02:32:14;;;;;;;18.27;10.45;;;;;;;18.98;77.83;99742.09;2183089;81;33769;-64
2021/07/15 02:35:20;;;;;;;20.00;9.03;;;;;;;18.98;77.72;99737.14;2187395;81;29342;-64
2021/07/15 02:38:22;;;;;;;18.42;9.95;;;;;;;18.99;77.72;99729.35;2077031;83;27684;-65
2021/07/15 02:41:25;;;;;;;13.32;9.75;;;;;;;19.05;77.89;99730.14;2078682;83;29634;-67
2021/07/15 02:44:26;;;;;;;20.15;9.75;;;;;;;19.09;77.71;99732.93;2065258;84;31955;-65
2021/07/15 02:47:28;;;;;;;15.28;9.48;;;;;;;19.13;78.07;99745.19;2182013;81;32976;-65
2021/07/15 02:50:30;;;;;;;20.97;10.08;;;;;;;19.12;77.68;99745.34;2194362;81;29321;-65
2021/07/15 02:53:36;;;;;;;20.60;10.93;;;;;;;19.15;77.85;99748.27;2194843;81;27707;-67
2021/07/15 02:56:52;;;;;;;22.52;10.48;;;;;;;19.16;77.70;99756.77;2180479;81;29481;-66
2021/07/15 03:00:05;;;;;;;16.20;9.95;;;;;;;19.17;77.69;99759.35;2159085;81;31650;-67
2021/07/15 03:03:51;;;;;;;16.02;9.88;;;;;;;19.23;77.69;99753.32;2153891;81;32999;-66
2021/07/15 03:06:55;;;;;;;23.77;10.00;;;;;;;19.23;77.57;99761.98;2174141;81;30131;-66
2021/07/15 03:09:57;;;;;;;18.65;10.70;;;;;;;19.28;77.62;99774.12;2192417;81;27635;-65
2021/07/15 03:12:59;;;;;;;19.40;9.75;;;;;;;19.32;77.74;99775.19;2192393;80;29408;-65
2021/07/15 03:16:01;;;;;;;23.20;10.32;;;;;;;19.34;77.55;99773.19;2188336;81;31020;-66
2021/07/15 03:19:05;;;;;;;21.68;11.35;;;;;;;19.40;77.60;99772.58;2151402;81;33070;-67
2021/07/15 03:22:07;;;;;;;23.15;10.78;;;;;;;19.43;77.51;99776.37;2187886;81;29329;-67
2021/07/15 03:25:14;;;;;;;17.37;11.20;;;;;;;19.43;77.41;99779.09;2174035;81;27787;-65
2021/07/15 03:28:19;;;;;;;18.37;10.90;;;;;;;19.47;77.43;99774.20;2162585;81;29524;-66
2021/07/15 03:31:23;;;;;;;24.18;11.75;;;;;;;19.47;77.42;99766.93;2154837;82;31278;-65
2021/07/15 03:34:29;;;;;;;19.25;10.20;;;;;;;19.54;77.63;99757.17;2184336;81;32970;-67
2021/07/15 03:37:33;;;;;;;27.87;11.25;;;;;;;19.65;77.64;99756.13;2195147;81;30159;-65
2021/07/15 03:40:35;;;;;;;19.52;11.45;;;;;;;19.74;77.50;99756.62;2183394;81;28125;-65
2021/07/15 03:43:38;;;;;;;18.92;11.12;;;;;;;19.81;77.45;99758.72;2183219;80;28799;-67
2021/07/15 03:46:42;;;;;;;19.98;11.38;;;;;;;19.89;77.46;99762.95;2179748;80;31111;-69
2021/07/15 03:49:46;;;;;;;18.12;10.75;;;;;;;19.96;77.29;99769.48;2174728;80;32940;-71
2021/07/15 03:52:51;;;;;;;28.32;10.60;;;;;;;20.00;77.27;99760.02;2127585;82;29340;-66
2021/07/15 03:55:54;;;;;;;25.00;10.60;;;;;;;20.00;76.81;99765.47;2183779;80;27655;-67
2021/07/15 03:59:01;;;;;;;18.85;11.03;;;;;;;19.97;76.69;99769.00;2158391;80;28654;-68
2021/07/15 04:02:03;;;;;;;18.85;10.20;;;;;;;19.99;77.04;99770.55;2075837;84;31026;-66
2021/07/15 04:05:07;;;;;;;17.23;10.60;;;;;;;20.07;77.04;99779.83;2086231;83;34001;-66
2021/07/15 04:08:09;;;;;;;16.30;10.50;;;;;;;20.14;77.02;99775.48;2171823;80;30143;-78
2021/07/15 04:11:15;;;;;;;24.20;10.10;;;;;;;20.19;77.02;99776.73;2129337;80;27676;-67
2021/07/15 04:14:31;;;;;;;15.78;10.38;;;;;;;20.25;76.97;99779.86;2160284;80;28706;-66
2021/07/15 04:17:53;;;;;;;18.17;10.48;;;;;;;20.29;76.78;99779.40;2115975;83;31038;-66
2021/07/15 04:20:56;;;;;;;25.17;10.85;;;;;;;20.34;76.73;99792.05;2131448;83;33031;-66
2021/07/15 04:23:59;;;;;;;17.75;10.93;;;;;;;20.36;76.55;99792.41;2131585;83;30142;-66
2021/07/15 04:27:03;;;;;;;14.28;10.70;;;;;;;20.36;76.37;99795.97;2131371;83;27841;-67
2021/07/15 04:30:08;;;;;;;19.97;11.80;;;;;;;20.40;76.48;99791.94;2131620;83;28902;-67
2021/07/15 04:33:11;;;;;;;17.52;11.50;;;;;;;20.43;76.43;99786.20;2131559;83;30929;-68
2021/07/15 04:36:13;;;;;;;20.15;10.55;;;;;;;20.48;76.36;99781.65;2131713;83;32799;-66
2021/07/15 04:39:15;;;;;;;19.23;10.82;;;;;;;20.53;76.20;99787.98;2131088;83;29549;-65
2021/07/15 04:42:18;;;;;;;17.73;11.18;;;;;;;20.58;76.17;99789.75;2131516;83;27692;-74
2021/07/15 04:45:25;;;;;;;25.32;11.93;;;;;;;20.61;76.12;99790.81;2131401;83;28669;-71
2021/07/15 04:48:28;;;;;;;21.93;12.10;;;;;;;20.62;76.08;99782.48;2131619;83;31084;-65
2021/07/15 04:51:31;;;;;;;23.80;12.18;;;;;;;20.62;76.00;99792.00;2131364;83;33199;-67
2021/07/15 04:54:32;;;;;;;14.20;9.55;;;;;;;20.59;75.84;99786.02;2185094;80;30355;-67
2021/07/15 04:57:37;;;;;;;13.95;9.15;;;;;;;20.56;75.75;99789.05;2212309;80;28135;-67
2021/07/15 05:00:39;;;;;;;11.60;8.28;;;;;;;20.56;75.70;99792.64;2194148;80;28650;-66
2021/07/15 05:03:41;;;;;;;16.02;8.58;;;;;;;20.57;75.69;99788.91;2194315;80;31068;-66
2021/07/15 05:06:43;;;;;;;13.83;8.63;;;;;;;20.63;75.95;99801.04;2172824;81;33022;-67
2021/07/15 05:09:45;;;;;;;14.98;7.95;;;;;;;20.72;75.95;99797.38;2204978;80;30117;-65
2021/07/15 05:12:46;;;;;;;17.67;8.75;;;;;;;20.82;75.87;99792.41;2212723;80;27708;-66
2021/07/15 05:15:52;;;;;;;12.35;9.05;;;;;;;20.95;75.75;99794.23;2213316;79;28639;-66
2021/07/15 05:18:54;;;;;;;16.02;9.40;;;;;;;21.20;75.99;99793.94;2209698;79;31059;-65
2021/07/15 05:21:58;;;;;;;15.45;10.28;;;;;;;21.51;75.84;99786.66;2212987;80;32965;-78
2021/07/15 05:24:59;;;;;;;21.57;11.88;;;;;;;21.81;75.45;99784.48;2209111;80;30178;-63
2021/07/15 05:28:01;;;;;;;17.55;9.28;;;;;;;22.14;74.96;99779.19;2180988;80;27509;-62
2021/07/15 05:31:03;;;;;;;14.65;10.58;;;;;;;22.41;74.42;99773.15;2210554;80;29456;-62
2021/07/15 05:34:05;;;;;;;12.23;8.25;;;;;;;22.65;73.92;99776.12;2197564;80;30994;-63
2021/07/15 05:37:07;;;;;;;74.53;48.65;;;;;;;22.84;73.45;99786.72;2172874;81;32957;-65
2021/07/15 05:40:10;;;;;;;16.52;9.63;;;;;;;22.88;72.96;99787.25;2172933;80;28820;-69
2021/07/15 05:43:11;;;;;;;13.98;9.18;;;;;;;22.84;72.69;99789.97;2206429;79;27673;-68
2021/07/15 05:46:13;;;;;;;14.65;9.23;;;;;;;22.83;72.55;99806.02;2202182;80;28767;-66
2021/07/15 05:49:15;;;;;;;19.98;9.40;;;;;;;22.78;72.44;99808.39;2201452;80;32101;-62
2021/07/15 05:52:18;;;;;;;16.42;9.30;;;;;;;22.68;72.10;99806.67;2185256;80;58032;-77
2021/07/15 05:55:20;;;;;;;18.35;8.75;;;;;;;22.65;72.07;99817.09;2199202;80;30416;-67
2021/07/15 05:58:22;;;;;;;11.30;7.45;;;;;;;22.64;72.22;99819.47;2187452;80;27710;-66
2021/07/15 06:01:24;;;;;;;12.07;6.75;;;;;;;22.70;72.15;99818.29;2161520;80;28793;-68
2021/07/15 06:04:26;;;;;;;9.95;5.83;;;;;;;22.82;71.99;99809.27;2161501;82;31912;-66
2021/07/15 06:07:28;;;;;;;11.73;4.85;;;;;;;22.99;71.83;99806.03;2164292;80;33171;-66
2021/07/15 06:10:30;;;;;;;7.00;4.80;;;;;;;23.75;72.29;99798.13;2202228;80;30117;-67
2021/07/15 06:13:31;;;;;;;62.88;42.05;;;;;;;24.51;71.20;99801.30;2202223;80;27569;-67
2021/07/15 06:16:34;;;;;;;20.65;10.32;;;;;;;25.80;70.62;99803.92;2201633;80;28622;-70
2021/07/15 06:19:36;;;;;;;7.42;4.00;;;;;;;26.94;68.60;99801.25;2200717;80;31217;-70
2021/07/15 06:22:40;;;;;;;9.68;4.05;;;;;;;27.88;66.55;99801.19;2197662;80;32956;-66
2021/07/15 06:25:44;;;;;;;7.80;3.02;;;;;;;28.67;64.92;99800.41;2187791;80;29390;-72
2021/07/15 06:28:48;;;;;;;8.65;3.62;;;;;;;28.98;63.86;99800.91;2202668;80;27671;-66
2021/07/15 06:31:53;;;;;;;13.15;9.13;;;;;;;28.79;62.31;99797.94;2201918;80;28605;-62
2021/07/15 06:34:57;;;;;;;7.67;3.00;;;;;;;28.71;62.02;99796.16;2173220;80;31877;-66
2021/07/15 06:38:03;;;;;;;4.28;2.65;;;;;;;29.30;61.18;99804.78;2133563;82;33209;-64
2021/07/15 06:41:10;;;;;;;8.30;2.47;;;;;;;30.15;59.80;99796.32;2162267;81;29381;-64
2021/07/15 06:44:13;;;;;;;6.28;3.65;;;;;;;31.00;58.96;99790.28;2161949;81;28101;-61
2021/07/15 06:47:15;;;;;;;5.30;3.12;;;;;;;31.81;57.84;99787.69;2159858;82;28725;-62
2021/07/15 06:50:18;;;;;;;8.25;2.67;;;;;;;32.15;55.79;99788.16;2160056;81;31475;-61
2021/07/15 06:53:21;;;;;;;9.15;2.40;;;;;;;32.50;54.70;99790.31;2160197;82;33046;-60
2021/07/15 06:56:28;;;;;;;6.33;2.37;;;;;;;32.79;54.18;99782.78;2159619;81;30059;-63
2021/07/15 06:59:31;;;;;;;7.17;2.15;;;;;;;33.16;52.86;99796.55;2159824;82;27703;-63
2021/07/15 07:02:35;;;;;;;7.03;2.17;;;;;;;33.58;52.20;99813.72;2160146;82;33193;-62
2021/07/15 07:05:37;;;;;;;5.92;2.30;;;;;;;34.16;51.21;99821.73;2141676;82;32071;-60
2021/07/15 07:08:39;;;;;;;3.50;2.37;;;;;;;34.62;50.21;99823.25;2159542;82;34469;-64
2021/07/15 07:11:41;;;;;;;5.20;2.67;;;;;;;35.06;48.77;99812.98;2159618;81;29357;-62
2021/07/15 07:14:47;;;;;;;5.42;2.45;;;;;;;35.46;47.77;99810.34;2159770;82;27703;-61
2021/07/15 07:17:50;;;;;;;9.13;3.80;;;;;;;35.69;46.52;99822.67;2160223;82;28650;-64
2021/07/15 07:20:53;;;;;;;6.90;2.45;;;;;;;36.03;45.53;99820.42;2160260;82;31063;-63
2021/07/15 07:23:56;;;;;;;7.62;2.67;;;;;;;36.03;44.36;99818.45;2159798;82;33845;-62
2021/07/15 07:27:00;;;;;;;6.35;2.67;;;;;;;36.26;44.33;99815.67;2160122;82;29395;-63
2021/07/15 07:30:06;;;;;;;11.22;2.87;;;;;;;36.17;42.88;99823.66;2160319;82;27750;-67
2021/07/15 07:33:07;;;;;;;4.05;2.25;;;;;;;35.80;42.41;99818.09;2160171;82;28639;-66
2021/07/15 07:36:09;;;;;;;12.45;2.47;;;;;;;35.10;42.05;99815.56;2159996;82;31027;-66
2021/07/15 07:39:12;;;;;;;3.12;2.17;;;;;;;34.37;42.72;99810.50;2160270;82;33186;-66
2021/07/15 07:42:14;;;;;;;8.53;2.80;;;;;;;33.67;42.63;99809.48;2160154;81;29415;-67
2021/07/15 07:45:17;;;;;;;5.75;2.50;;;;;;;33.00;42.88;99803.09;2161212;81;27651;-66
2021/07/15 07:48:19;;;;;;;13.23;3.50;;;;;;;32.56;43.59;99803.26;2162086;82;29647;-68
2021/07/15 07:51:21;;;;;;;11.80;6.10;;;;;;;32.14;43.65;99811.41;2162016;82;31987;-69
2021/07/15 07:54:23;;;;;;;12.20;3.80;;;;;;;31.71;43.94;99815.08;2162306;82;33763;-69
2021/07/15 07:57:25;;;;;;;6.60;2.92;;;;;;;31.33;44.20;99821.86;2162496;82;29336;-66
2021/07/15 08:00:27;;;;;;;4.50;2.95;;;;;;;30.87;44.66;99829.93;2162325;81;27687;-67
2021/07/15 08:03:31;;;;;;;8.45;3.30;;;;;;;30.47;45.28;99826.81;2162384;82;29825;-67
2021/07/15 08:06:37;;;;;;;4.10;2.90;;;;;;;30.19;45.56;99818.83;2162527;81;31879;-67
2021/07/15 08:09:46;;;;;;;6.85;3.80;;;;;;;29.95;45.79;99808.78;2162308;82;32953;-67
2021/07/15 08:12:57;;;;;;;10.53;3.77;;;;;;;29.71;46.13;99818.06;2181770;80;30319;-67
2021/07/15 08:16:00;;;;;;;3.65;3.30;;;;;;;29.54;46.67;99827.30;2185592;80;27634;-66
2021/07/15 08:19:02;;;;;;;9.75;3.83;;;;;;;29.38;46.71;99834.10;2184538;80;28702;-75
2021/07/15 08:22:05;;;;;;;8.10;3.50;;;;;;;29.31;47.02;99831.83;2187718;80;33151;-68
2021/07/15 08:25:09;;;;;;;5.87;3.58;;;;;;;29.35;47.40;99837.28;2196937;80;33760;-71
2021/07/15 08:28:11;;;;;;;6.83;3.58;;;;;;;29.41;47.43;99834.52;2198918;80;29373;-68
2021/07/15 08:31:13;;;;;;;11.55;4.00;;;;;;;29.47;47.67;99837.50;2184461;80;28266;-66
2021/07/15 08:34:14;;;;;;;12.28;8.30;;;;;;;29.50;47.49;99843.98;2190976;80;28662;-66
2021/07/15 08:37:16;;;;;;;5.05;3.60;;;;;;;29.51;47.40;99838.78;2120711;83;32179;-70
2021/07/15 08:40:19;;;;;;;5.90;3.70;;;;;;;29.58;47.51;99842.38;2093552;83;33885;-66
2021/07/15 08:43:23;;;;;;;5.62;3.62;;;;;;;29.58;47.51;99852.58;2128263;81;29416;-68
2021/07/15 08:46:25;;;;;;;5.35;3.47;;;;;;;29.64;48.00;99853.95;2143235;82;33636;-72
2021/07/15 08:49:27;;;;;;;6.95;3.50;;;;;;;29.68;47.81;99860.76;2126731;82;29496;-67
2021/07/15 08:52:29;;;;;;;9.75;3.45;;;;;;;29.66;47.34;99862.02;2184671;80;31095;-65
2021/07/15 08:58:48;;;;;;;6.00;3.42;;;;;;;29.63;47.28;99866.57;2161914;80;30366;-68
2021/07/15 09:01:51;;;;;;;9.13;4.17;;;;;;;29.69;47.83;99861.08;2164178;80;27723;-67
2021/07/15 09:04:53;;;;;;;7.50;4.03;;;;;;;29.70;47.45;99868.27;2163871;80;29696;-68
2021/07/15 09:07:55;;;;;;;9.33;4.40;;;;;;;29.77;47.89;99877.09;2202060;80;31023;-72
2021/07/15 09:10:57;;;;;;;8.48;4.37;;;;;;;29.96;48.21;99891.97;2193501;80;33122;-74
2021/07/15 09:13:59;;;;;;;9.00;3.62;;;;;;;30.11;47.66;99887.09;2174042;80;29367;-68
2021/07/15 09:17:03;;;;;;;6.72;3.67;;;;;;;30.21;47.45;99889.38;2162240;80;27688;-68
2021/07/15 09:20:10;;;;;;;11.73;6.90;;;;;;;30.29;47.70;99894.69;2174432;80;29911;-66
2021/07/15 09:23:15;;;;;;;6.67;3.55;;;;;;;30.39;47.63;99901.14;2201114;80;31816;-67
2021/07/15 09:26:17;;;;;;;7.85;3.80;;;;;;;30.42;46.78;99903.48;2181250;80;33191;-68
2021/07/15 09:29:19;;;;;;;6.28;3.90;;;;;;;30.41;46.71;99911.45;2180829;80;30552;-70
2021/07/15 09:32:22;;;;;;;6.10;3.08;;;;;;;30.44;46.77;99911.55;2202452;80;27692;-69
2021/07/15 09:35:39;;;;;;;7.23;4.00;;;;;;;30.47;46.25;99911.12;2192762;80;29552;-70
2021/07/15 09:38:42;;;;;;;5.00;3.50;;;;;;;30.53;46.08;99906.62;2162050;82;31199;-71
2021/07/15 09:41:45;;;;;;;6.33;3.35;;;;;;;30.55;46.13;99910.89;2167564;80;33081;-69
2021/07/15 09:44:51;;;;;;;10.30;3.60;;;;;;;30.69;46.04;99919.17;2200448;79;29534;-77
2021/07/15 09:47:53;;;;;;;7.30;3.75;;;;;;;30.74;45.83;99923.48;2201672;80;27715;-64
2021/07/15 09:50:59;;;;;;;7.80;3.75;;;;;;;30.73;45.16;99922.66;2185641;80;29988;-68
2021/07/15 09:54:03;;;;;;;12.20;4.40;;;;;;;30.70;45.34;99920.31;2162289;82;32044;-69
2021/07/15 09:57:05;;;;;;;4.03;3.35;;;;;;;30.71;45.24;99922.53;2162951;80;33778;-71
2021/07/15 10:00:08;;;;;;;6.95;3.65;;;;;;;30.76;45.47;99925.50;2168110;80;29342;-69
2021/07/15 10:03:14;;;;;;;5.85;3.92;;;;;;;30.95;45.02;99920.11;2202457;80;27710;-68
2021/07/15 10:06:17;;;;;;;6.25;3.77;;;;;;;31.06;44.44;99911.09;2141089;83;28827;-68
2021/07/15 10:09:28;;;;;;;4.77;3.73;;;;;;;31.15;44.83;99916.73;2140718;83;31066;-72
2021/07/15 10:12:30;;;;;;;18.07;14.13;;;;;;;31.32;44.89;99898.22;2104316;83;33757;-69
2021/07/15 10:15:32;;;;;;;5.72;4.03;;;;;;;31.36;44.14;99902.22;2118646;83;29393;-71
2021/07/15 10:18:45;;;;;;;8.08;5.58;;;;;;;31.33;44.06;99904.91;2206910;80;27677;-68
2021/07/15 10:21:59;;;;;;;6.15;4.05;;;;;;;31.45;44.53;99901.41;2205191;80;28668;-71
2021/07/15 10:25:01;;;;;;;8.80;4.10;;;;;;;31.63;43.68;99910.34;2203456;80;31022;-74
2021/07/15 10:28:05;;;;;;;5.78;5.12;;;;;;;31.79;43.83;99916.73;2197247;80;32951;-73
2021/07/15 10:31:08;;;;;;;6.05;4.05;;;;;;;31.77;43.47;99915.28;2190779;80;29345;-69
2021/07/15 10:34:10;;;;;;;6.20;3.73;;;;;;;31.84;43.21;99920.20;2197590;80;27682;-67
2021/07/15 10:37:13;;;;;;;9.40;4.37;;;;;;;31.95;42.84;99929.70;2192914;80;29534;-68
2021/07/15 10:40:18;;;;;;;4.95;3.87;;;;;;;31.79;42.82;99930.59;2197573;80;31614;-68
2021/07/15 10:43:20;;;;;;;7.92;4.60;;;;;;;31.51;42.09;99933.75;2148764;82;33008;-71
2021/07/15 10:46:23;;;;;;;4.72;4.05;;;;;;;30.96;42.03;99936.47;2128847;82;29344;-69
2021/07/15 10:49:25;;;;;;;4.47;4.08;;;;;;;30.74;42.68;99940.08;2119230;83;27854;-69
2021/07/15 10:52:28;;;;;;;7.58;4.50;;;;;;;30.37;42.23;99943.34;2089111;83;29716;-68
2021/07/15 10:55:30;;;;;;;6.65;4.40;;;;;;;30.04;43.20;99948.39;2195346;81;31072;-74
2021/07/15 10:58:48;;;;;;;5.12;4.60;;;;;;;29.90;43.63;99952.19;2194723;81;32973;-69
2021/07/15 11:01:50;;;;;;;5.65;4.00;;;;;;;29.73;43.92;99953.98;2193497;81;29547;-75
2021/07/15 11:04:54;;;;;;;5.05;3.85;;;;;;;29.65;44.08;99949.52;2193143;81;28133;-69
2021/07/15 11:07:56;;;;;;;5.47;4.30;;;;;;;29.65;44.04;99953.66;2195571;81;29645;-73
2021/07/15 11:10:59;;;;;;;6.42;4.05;;;;;;;29.66;44.27;99951.22;2185079;81;30098;-66
2021/07/15 11:14:01;;;;;;;5.20;3.77;;;;;;;29.73;44.44;99944.33;2168586;81;32962;-70
2021/07/15 11:17:25;;;;;;;8.58;4.25;;;;;;;29.81;44.39;99951.00;2155803;82;30142;-65
2021/07/15 11:20:31;;;;;;;8.97;4.57;;;;;;;29.82;44.32;99947.19;2160224;81;27752;-66
2021/07/15 11:23:33;;;;;;;8.30;4.50;;;;;;;29.93;44.38;99942.94;2157230;81;28907;-65
2021/07/15 11:26:40;;;;;;;28.75;19.87;;;;;;;29.94;44.31;99941.05;2133803;83;32280;-61
2021/07/15 11:29:48;;;;;;;8.80;5.78;;;;;;;30.05;44.01;99937.66;2190524;81;32962;-70
2021/07/15 11:32:54;;;;;;;6.72;4.65;;;;;;;30.08;43.97;99933.09;2171623;81;27719;-65
2021/07/15 11:36:12;;;;;;;7.22;4.80;;;;;;;30.24;44.19;99924.87;2157990;81;27619;-66
2021/07/15 11:39:14;;;;;;;10.58;4.90;;;;;;;30.44;44.64;99923.47;2086245;84;29565;-63
2021/07/15 11:42:24;;;;;;;4.67;3.87;;;;;;;30.63;44.36;99925.55;2120859;83;31926;-64
2021/07/15 11:45:26;;;;;;;6.75;4.25;;;;;;;30.65;44.61;99918.73;2083538;84;32989;-63
2021/07/15 11:49:12;;;;;;;7.72;4.65;;;;;;;30.38;43.63;99913.78;2039675;86;29758;-63
2021/07/15 11:52:22;;;;;;;6.15;4.40;;;;;;;30.12;43.28;99908.09;2044078;86;27787;-63
2021/07/15 11:55:34;;;;;;;6.95;4.10;;;;;;;29.91;44.13;99906.94;2096529;84;27757;-62
2021/07/15 11:58:45;;;;;;;6.83;3.98;;;;;;;29.76;44.08;99903.87;2109273;84;31774;-69
2021/07/15 12:01:52;;;;;;;7.47;6.10;;;;;;;29.47;44.40;99905.12;2107059;84;33899;-62
2021/07/15 12:05:17;;;;;;;6.47;5.10;;;;;;;29.11;44.94;99905.23;2104725;84;30183;-76
2021/07/15 12:08:19;;;;;;;;;;;;;;;28.87;44.84;99901.13;2109600;84;28073;-72
2021/07/15 12:11:22;;;;;;;7.97;4.22;;;;;;;28.73;45.38;99897.45;2106568;84;30776;-64
2021/07/15 12:14:25;;;;;;;7.80;4.50;;;;;;;28.65;45.75;99905.89;2108493;84;32941;-73
2021/07/15 12:17:31;;;;;;;6.90;4.17;;;;;;;28.64;45.95;99903.64;2105122;83;33001;-63
2021/07/15 12:20:51;;;;;;;8.25;4.58;;;;;;;28.58;45.99;99910.00;2117694;84;29700;-76
2021/07/15 12:23:53;;;;;;;5.47;3.95;;;;;;;28.59;46.47;99908.94;2110285;84;27771;-69
2021/07/15 12:26:57;;;;;;;9.45;4.10;;;;;;;28.52;46.01;99903.08;2117428;84;28646;-65
2021/07/15 12:30:01;;;;;;;8.08;4.30;;;;;;;28.41;46.27;99902.58;2107946;84;32241;-68
2021/07/15 12:33:04;;;;;;;7.85;4.45;;;;;;;28.40;46.39;99903.63;2106582;83;34226;-65
2021/07/15 12:36:13;;;;;;;7.08;4.33;;;;;;;28.37;46.70;99888.04;2125024;83;29307;-66
2021/07/15 12:39:19;;;;;;;5.53;4.15;;;;;;;28.42;47.12;99880.02;2125101;83;28301;-66
2021/07/15 12:42:22;;;;;;;15.30;6.33;;;;;;;28.45;47.01;99881.84;2192500;80;29487;-67
2021/07/15 12:45:26;;;;;;;4.62;4.12;;;;;;;28.50;46.98;99892.23;2113357;83;31056;-66
2021/07/15 12:48:31;;;;;;;6.80;4.60;;;;;;;28.54;46.92;99883.89;2074195;85;33118;-72
2021/07/15 12:51:44;;;;;;;7.15;4.40;;;;;;;28.68;46.96;99886.19;2145544;81;29365;-65
2021/07/15 12:54:49;;;;;;;5.00;4.47;;;;;;;28.84;47.18;99889.67;2165225;81;27676;-70
2021/07/15 12:57:56;;;;;;;8.23;4.67;;;;;;;28.96;47.61;99883.33;2094403;83;28331;-65
2021/07/15 13:01:05;;;;;;;9.98;4.87;;;;;;;29.09;47.31;99882.52;2085279;83;32350;-71
2021/07/15 13:04:14;;;;;;;6.03;4.12;;;;;;;29.18;47.02;99890.07;2084594;85;34445;-66
2021/07/15 13:07:21;;;;;;;8.38;4.92;;;;;;;29.31;47.13;99886.50;2087863;83;29336;-65
2021/07/15 13:16:53;;;;;;;8.33;4.25;;;;;;;29.73;45.99;99893.76;2087695;83;31706;-65
2021/07/15 13:19:56;;;;;;;5.67;4.60;;;;;;;29.74;45.61;99889.94;2081247;84;33767;-63
2021/07/15 13:22:58;;;;;;;6.95;4.67;;;;;;;29.82;45.97;99888.36;2078653;84;30589;-63
2021/07/15 13:26:01;;;;;;;8.75;4.83;;;;;;;29.92;45.79;99887.92;2149987;81;27729;-63
2021/07/15 13:29:10;;;;;;;5.10;4.60;;;;;;;29.89;45.25;99891.11;2124413;83;28856;-64
2021/07/15 13:32:21;;;;;;;10.45;5.05;;;;;;;29.85;45.10;99881.03;2177024;80;30501;-64
2021/07/15 13:35:23;;;;;;;8.23;5.20;;;;;;;29.79;45.08;99873.05;2180106;81;33073;-65
2021/07/15 13:38:27;;;;;;;8.60;4.50;;;;;;;29.73;45.26;99868.91;2179877;81;30525;-63
2021/07/15 13:41:31;;;;;;;8.70;4.35;;;;;;;29.65;45.06;99868.08;2180373;81;27604;-67
2021/07/15 13:44:34;;;;;;;6.95;4.15;;;;;;;29.61;45.08;99868.72;2180029;81;28679;-68
2021/07/15 13:47:44;;;;;;;7.17;4.60;;;;;;;29.53;44.95;99871.17;2173920;79;31016;-69
2021/07/15 13:50:50;;;;;;;6.85;4.65;;;;;;;29.38;44.91;99854.80;2144010;81;34365;-66
2021/07/15 13:53:53;;;;;;;12.00;5.33;;;;;;;29.27;45.84;99852.09;2138655;81;29363;-68
2021/07/15 13:56:58;;;;;;;7.20;4.47;;;;;;;29.17;45.77;99853.89;2172827;81;27594;-69
2021/07/15 14:00:27;;;;;;;6.45;4.62;;;;;;;29.04;45.87;99851.11;2159721;81;29439;-67
2021/07/15 14:03:28;;;;;;;8.48;5.00;;;;;;;28.96;45.71;99846.09;2167374;81;31017;-66
2021/07/15 14:06:35;;;;;;;9.15;4.70;;;;;;;28.83;45.81;99840.55;2151319;81;34312;-68
2021/07/15 14:09:40;;;;;;;7.87;4.30;;;;;;;28.73;45.83;99846.45;2172718;81;31417;-65
2021/07/15 14:12:46;;;;;;;9.20;5.62;;;;;;;28.65;46.43;99849.37;2176772;81;27632;-66
2021/07/15 14:15:58;;;;;;;10.65;4.95;;;;;;;28.51;46.18;99837.45;2173098;81;28802;-72
2021/07/15 14:19:06;;;;;;;10.28;4.55;;;;;;;28.44;46.29;99842.93;2174983;81;30997;-70
2021/07/15 14:22:08;;;;;;;9.75;5.12;;;;;;;28.35;46.16;99844.17;2173350;81;33845;-68
2021/07/15 14:25:12;;;;;;;10.45;5.05;;;;;;;28.30;46.19;99851.65;2173680;81;30149;-66
2021/07/15 14:28:15;;;;;;;7.60;4.93;;;;;;;28.27;46.27;99852.08;2174006;81;27620;-68
2021/07/15 14:31:17;;;;;;;9.13;4.27;;;;;;;28.31;46.88;99843.70;2172933;81;28695;-67
2021/07/15 14:34:20;;;;;;;7.25;4.87;;;;;;;28.39;46.93;99841.84;2173441;81;30997;-67